createdAt,value
2018-06-11T00:02:09.930Z,12.03
2018-06-11T00:04:38.699Z,12.03
2018-06-11T00:07:07.716Z,11.73
2018-06-11T00:09:36.434Z,11.97
2018-06-11T00:12:04.896Z,12.35
2018-06-11T00:14:33.610Z,12.60
2018-06-11T00:17:02.672Z,12.60
2018-06-11T00:19:31.341Z,12.40
2018-06-11T00:22:00.133Z,12.80
2018-06-11T00:24:28.885Z,13.00
2018-06-11T00:26:57.662Z,12.10
2018-06-11T00:29:26.243Z,12.15
2018-06-11T00:31:55.167Z,12.17
2018-06-11T00:34:23.894Z,10.80
2018-06-11T00:36:52.819Z,11.08
2018-06-11T00:39:21.916Z,23.07
2018-06-11T00:41:50.721Z,15.23
2018-06-11T00:44:18.960Z,13.48
2018-06-11T00:46:47.549Z,13.08
2018-06-11T00:49:16.148Z,13.22
2018-06-11T00:51:44.981Z,13.35
2018-06-11T00:54:13.592Z,13.65
2018-06-11T00:56:42.409Z,12.90
2018-06-11T00:59:11.168Z,12.90
2018-06-11T01:01:39.931Z,12.70
2018-06-11T01:04:08.750Z,13.05
2018-06-11T01:06:37.417Z,12.18
2018-06-11T01:09:07.431Z,12.50
2018-06-11T01:11:35.765Z,12.77
2018-06-11T01:14:04.520Z,13.00
2018-06-11T01:16:33.382Z,12.80
2018-06-11T01:19:02.085Z,12.85
2018-06-11T01:21:30.862Z,12.88
2018-06-11T01:23:59.621Z,12.68
2018-06-11T01:26:28.337Z,13.05
2018-06-11T01:28:56.889Z,13.37
2018-06-11T01:31:25.536Z,13.53
2018-06-11T01:33:54.095Z,13.33
2018-06-11T01:36:22.979Z,13.40
2018-06-11T01:38:51.332Z,13.10
2018-06-11T01:41:20.011Z,13.55
2018-06-11T01:43:48.286Z,13.43
2018-06-11T01:46:17.002Z,12.58
2018-06-11T01:48:45.748Z,13.22
2018-06-11T01:51:14.513Z,13.08
2018-06-11T01:53:43.118Z,13.10
2018-06-11T01:56:12.283Z,13.08
2018-06-11T01:58:41.271Z,13.62
2018-06-11T02:01:09.877Z,13.28
2018-06-11T02:03:38.313Z,13.70
2018-06-11T02:06:06.927Z,13.93
2018-06-11T02:08:35.709Z,13.95
2018-06-11T02:11:04.395Z,14.63
2018-06-11T02:13:32.800Z,15.10
2018-06-11T02:16:01.636Z,16.20
2018-06-11T02:18:30.306Z,16.83
2018-06-11T02:20:59.198Z,16.27
2018-06-11T02:23:28.514Z,16.40
2018-06-11T02:25:57.199Z,15.75
2018-06-11T02:28:25.928Z,14.25
2018-06-11T02:30:54.742Z,15.13
2018-06-11T02:33:23.459Z,15.32
2018-06-11T02:35:52.275Z,14.73
2018-06-11T02:38:21.088Z,14.93
2018-06-11T02:40:49.739Z,15.43
2018-06-11T02:43:18.399Z,15.50
2018-06-11T02:45:47.222Z,15.10
2018-06-11T02:48:16.009Z,15.15
2018-06-11T02:50:45.071Z,15.65
2018-06-11T02:53:13.798Z,15.70
2018-06-11T02:55:42.474Z,15.60
2018-06-11T02:58:11.080Z,15.20
2018-06-11T03:00:39.856Z,15.33
2018-06-11T03:03:08.746Z,15.70
2018-06-11T03:05:37.674Z,15.58
2018-06-11T03:08:06.522Z,16.02
2018-06-11T03:10:35.375Z,14.70
2018-06-11T03:13:03.730Z,15.20
2018-06-11T03:15:32.525Z,15.38
2018-06-11T03:18:01.134Z,15.38
2018-06-11T03:20:29.887Z,15.05
2018-06-11T03:22:58.501Z,15.00
2018-06-11T03:25:27.277Z,14.65
2018-06-11T03:27:55.700Z,15.03
2018-06-11T03:30:24.440Z,15.35
2018-06-11T03:32:53.025Z,16.77
2018-06-11T03:35:21.938Z,15.15
2018-06-11T03:37:50.708Z,15.68
2018-06-11T03:40:20.032Z,15.28
2018-06-11T03:42:48.819Z,15.45
2018-06-11T03:45:17.588Z,15.50
2018-06-11T03:47:45.969Z,15.50
2018-06-11T03:50:14.853Z,15.10
2018-06-11T03:52:43.665Z,14.70
2018-06-11T03:55:12.414Z,14.13
2018-06-11T03:57:41.230Z,14.60
2018-06-11T04:00:10.067Z,14.47
2018-06-11T04:02:43.670Z,15.65
2018-06-11T04:05:12.122Z,14.68
2018-06-11T04:07:41.492Z,14.87
2018-06-11T04:10:10.312Z,16.00
2018-06-11T04:12:39.006Z,15.53
2018-06-11T04:15:07.716Z,16.35
2018-06-11T04:17:36.526Z,16.07
2018-06-11T04:20:05.369Z,15.83
2018-06-11T04:22:34.088Z,15.78
2018-06-11T04:25:02.964Z,15.80
2018-06-11T04:27:31.794Z,15.32
2018-06-11T04:30:00.434Z,15.70
2018-06-11T04:32:29.179Z,15.00
2018-06-11T04:34:57.862Z,16.03
2018-06-11T04:37:26.792Z,16.52
2018-06-11T04:39:55.586Z,15.93
2018-06-11T04:42:24.488Z,15.58
2018-06-11T04:44:53.104Z,15.37
2018-06-11T04:47:21.798Z,14.80
2018-06-11T04:49:50.678Z,14.17
2018-06-11T04:52:19.452Z,14.35
2018-06-11T04:54:48.333Z,15.10
2018-06-11T04:57:17.268Z,15.75
2018-06-11T04:59:45.950Z,14.27
2018-06-11T05:02:14.601Z,14.23
2018-06-11T05:04:43.210Z,14.80
2018-06-11T05:07:11.713Z,13.75
2018-06-11T05:09:40.157Z,14.63
2018-06-11T05:12:08.916Z,13.88
2018-06-11T05:14:37.637Z,15.90
2018-06-11T05:17:06.721Z,15.93
2018-06-11T05:19:36.872Z,16.95
2018-06-11T05:22:05.771Z,16.07
2018-06-11T05:24:34.541Z,16.10
2018-06-11T05:27:03.370Z,16.23
2018-06-11T05:29:32.206Z,17.12
2018-06-11T05:32:00.957Z,14.60
2018-06-11T05:34:29.822Z,15.88
2018-06-11T05:36:58.193Z,16.15
2018-06-11T05:39:27.425Z,33.23
2018-06-11T05:41:56.159Z,15.03
2018-06-11T05:44:24.532Z,15.60
2018-06-11T05:46:53.266Z,15.25
2018-06-11T05:49:22.060Z,14.00
2018-06-11T05:51:50.637Z,14.95
2018-06-11T05:54:20.037Z,15.40
2018-06-11T05:56:48.273Z,15.98
2018-06-11T05:59:16.933Z,15.68
2018-06-11T06:01:45.593Z,16.65
2018-06-11T06:04:14.378Z,18.98
2018-06-11T06:06:42.757Z,21.33
2018-06-11T06:09:11.105Z,27.32
2018-06-11T06:11:39.826Z,25.52
2018-06-11T06:14:08.514Z,25.17
2018-06-11T06:16:37.205Z,26.42
2018-06-11T06:19:05.867Z,24.60
2018-06-11T06:21:34.698Z,27.30
2018-06-11T06:24:05.064Z,27.98
2018-06-11T06:26:33.947Z,28.43
2018-06-11T06:29:02.883Z,28.73
2018-06-11T06:31:31.533Z,29.15
2018-06-11T06:34:00.394Z,29.65
2018-06-11T06:36:28.722Z,28.83
2018-06-11T06:38:57.539Z,27.07
2018-06-11T06:41:26.547Z,26.30
2018-06-11T06:43:55.013Z,25.93
2018-06-11T06:46:23.981Z,25.17
2018-06-11T06:48:53.404Z,24.53
2018-06-11T06:51:26.996Z,25.02
2018-06-11T06:53:55.330Z,27.13
2018-06-11T06:56:25.076Z,27.87
2018-06-11T06:58:54.249Z,26.05
2018-06-11T07:01:30.068Z,27.13
2018-06-11T07:04:01.188Z,26.90
2018-06-11T07:06:29.938Z,25.23
2018-06-11T07:08:58.697Z,24.55
2018-06-11T07:11:28.104Z,24.07
2018-06-11T07:13:56.656Z,25.00
2018-06-11T07:16:25.304Z,21.70
2018-06-11T07:18:53.739Z,20.90
2018-06-11T07:21:22.460Z,20.70
2018-06-11T07:23:51.734Z,19.75
2018-06-11T07:26:20.613Z,20.40
2018-06-11T07:28:54.776Z,19.43
2018-06-11T07:31:23.179Z,19.67
2018-06-11T07:33:51.897Z,18.80
2018-06-11T07:36:20.581Z,18.82
2018-06-11T07:38:49.262Z,18.20
2018-06-11T07:41:18.680Z,17.42
2018-06-11T07:43:48.269Z,18.92
2018-06-11T07:46:17.669Z,18.40
2018-06-11T07:48:46.744Z,17.97
2018-06-11T07:51:18.876Z,16.42
2018-06-11T07:53:48.486Z,18.57
2018-06-11T07:56:17.438Z,20.13
2018-06-11T07:58:48.991Z,23.25
2018-06-11T08:01:39.755Z,22.40
2018-06-11T08:04:09.228Z,17.70
2018-06-11T08:06:37.970Z,19.48
2018-06-11T08:09:08.386Z,18.73
2018-06-11T08:11:37.323Z,17.77
2018-06-11T08:14:06.987Z,19.87
2018-06-11T08:16:35.550Z,19.93
2018-06-11T08:19:04.311Z,21.52
2018-06-11T08:21:33.640Z,20.65
2018-06-11T08:24:02.527Z,23.52
2018-06-11T08:26:31.523Z,25.43
2018-06-11T08:29:00.451Z,25.80
2018-06-11T08:31:29.213Z,25.05
2018-06-11T08:33:58.459Z,24.63
2018-06-11T08:36:27.512Z,23.73
2018-06-11T08:38:56.182Z,24.72
2018-06-11T08:41:24.887Z,25.10
2018-06-11T08:43:53.588Z,26.70
2018-06-11T08:46:22.354Z,25.75
2018-06-11T08:48:51.022Z,24.93
2018-06-11T08:51:23.337Z,25.05
2018-06-11T08:53:52.219Z,27.10
2018-06-11T08:56:21.237Z,24.43
2018-06-11T08:58:49.983Z,24.02
2018-06-11T09:01:19.590Z,19.40
2018-06-11T09:03:48.392Z,18.50
2018-06-11T09:06:17.347Z,23.47
2018-06-11T09:08:46.270Z,22.98
2018-06-11T09:11:15.155Z,24.80
2018-06-11T09:13:44.280Z,22.70
2018-06-11T09:16:16.245Z,19.30
2018-06-11T09:19:13.243Z,20.50
2018-06-11T09:21:43.732Z,12.28
2018-06-11T09:24:22.286Z,13.35
2018-06-11T09:26:57.357Z,12.05
2018-06-11T09:29:34.777Z,11.15
2018-06-11T09:32:06.324Z,11.73
2018-06-11T09:34:35.231Z,13.00
2018-06-11T09:37:04.031Z,12.18
2018-06-11T09:39:34.049Z,11.97
2018-06-11T09:42:08.700Z,11.78
2018-06-11T09:44:48.327Z,11.67
2018-06-11T09:47:17.680Z,11.75
2018-06-11T09:49:47.002Z,11.90
2018-06-11T09:52:16.153Z,10.27
2018-06-11T09:54:44.847Z,11.15
2018-06-11T09:57:15.589Z,10.85
2018-06-11T09:59:44.456Z,9.70
2018-06-11T10:02:17.822Z,9.80
2018-06-11T10:04:56.621Z,9.38
2018-06-11T10:07:25.553Z,9.03
2018-06-11T10:09:54.012Z,9.20
2018-06-11T10:12:22.814Z,9.63
2018-06-11T10:14:51.615Z,8.30
2018-06-11T10:17:20.340Z,8.83
2018-06-11T10:19:49.307Z,9.80
2018-06-11T10:22:20.882Z,9.30
2018-06-11T10:24:53.673Z,9.00
2018-06-11T10:27:22.558Z,8.63
2018-06-11T10:29:51.655Z,9.08
2018-06-11T10:32:20.761Z,8.40
2018-06-11T10:34:50.683Z,8.00
2018-06-11T10:37:19.516Z,8.88
2018-06-11T10:39:48.347Z,8.20
2018-06-11T10:42:17.758Z,8.30
2018-06-11T10:44:46.936Z,7.33
2018-06-11T10:47:18.159Z,7.10
2018-06-11T10:49:53.309Z,7.13
2018-06-11T10:52:22.393Z,6.90
2018-06-11T10:54:51.912Z,6.50
2018-06-11T10:57:20.580Z,6.50
2018-06-11T11:03:00.650Z,6.15
2018-06-11T11:05:30.737Z,6.50
2018-06-11T11:07:59.435Z,6.72
2018-06-11T11:10:28.270Z,6.40
2018-06-11T11:12:56.958Z,5.95
2018-06-11T11:15:25.836Z,6.70
2018-06-11T11:17:54.577Z,6.33
2018-06-11T11:20:23.543Z,6.00
2018-06-11T11:22:52.448Z,6.15
2018-06-11T11:25:21.564Z,5.90
2018-06-11T11:27:50.532Z,5.17
2018-06-11T11:30:19.459Z,5.72
2018-06-11T11:32:48.260Z,5.40
2018-06-11T11:35:17.096Z,5.40
2018-06-11T11:37:45.852Z,4.90
2018-06-11T11:40:14.649Z,4.50
2018-06-11T11:42:44.394Z,4.50
2018-06-11T11:45:14.691Z,5.22
2018-06-11T11:47:44.219Z,5.00
2018-06-11T11:50:13.204Z,4.85
2018-06-11T11:52:42.043Z,4.80
2018-06-11T11:55:10.895Z,4.70
2018-06-11T11:57:39.809Z,3.87
2018-06-11T12:00:08.899Z,4.22
2018-06-11T12:02:44.311Z,4.55
2018-06-11T12:05:21.225Z,4.20
2018-06-11T12:07:51.255Z,4.47
2018-06-11T12:10:21.652Z,4.15
2018-06-11T12:12:50.666Z,3.42
2018-06-11T12:15:19.579Z,3.98
2018-06-11T12:17:48.648Z,4.17
2018-06-11T12:20:17.344Z,4.05
2018-06-11T12:22:46.390Z,3.80
2018-06-11T12:25:15.159Z,3.75
2018-06-11T12:27:43.990Z,3.87
2018-06-11T12:30:12.793Z,3.22
2018-06-11T12:32:41.475Z,3.40
2018-06-11T12:35:10.271Z,3.50
2018-06-11T12:37:39.040Z,4.03
2018-06-11T12:40:07.750Z,3.40
2018-06-11T12:42:36.957Z,3.70
2018-06-11T12:45:15.226Z,3.90
2018-06-11T12:47:58.858Z,4.17
2018-06-11T12:50:48.015Z,4.42
2018-06-11T12:53:19.988Z,5.90
2018-06-11T12:55:58.061Z,4.83
2018-06-11T12:58:55.148Z,4.30
2018-06-11T13:01:35.617Z,4.30
2018-06-11T13:04:08.149Z,4.47
2018-06-11T13:06:44.260Z,4.50
2018-06-11T13:09:13.555Z,4.77
2018-06-11T13:11:43.675Z,4.17
2018-06-11T13:14:12.513Z,4.35
2018-06-11T13:16:41.990Z,4.58
2018-06-11T13:19:10.964Z,4.78
2018-06-11T13:21:43.098Z,4.72
2018-06-11T13:24:18.487Z,4.28
2018-06-11T13:26:47.467Z,4.78
2018-06-11T13:29:17.079Z,4.50
2018-06-11T13:31:45.662Z,4.47
2018-06-11T13:34:15.005Z,4.67
2018-06-11T13:36:44.032Z,5.20
2018-06-11T13:39:12.769Z,5.40
2018-06-11T13:41:52.027Z,5.50
2018-06-11T13:44:27.726Z,4.97
2018-06-11T13:47:05.599Z,5.45
2018-06-11T13:49:34.485Z,5.08
2018-06-11T13:52:03.383Z,5.00
2018-06-11T13:54:32.084Z,5.42
2018-06-11T13:57:00.941Z,4.92
2018-06-11T13:59:29.954Z,4.90
2018-06-11T14:01:58.794Z,4.80
2018-06-11T14:04:27.593Z,4.97
2018-06-11T14:06:56.439Z,5.03
2018-06-11T14:09:25.329Z,4.47
2018-06-11T14:11:54.027Z,4.97
2018-06-11T14:14:23.419Z,5.17
2018-06-11T14:16:52.580Z,4.90
2018-06-11T14:19:21.426Z,5.20
2018-06-11T14:21:50.316Z,5.30
2018-06-11T14:24:19.373Z,4.97
2018-06-11T14:26:48.269Z,4.95
2018-06-11T14:29:17.275Z,5.37
2018-06-11T14:31:46.091Z,5.15
2018-06-11T14:34:15.515Z,4.92
2018-06-11T14:36:50.821Z,4.95
2018-06-11T14:39:19.954Z,4.90
2018-06-11T14:41:48.599Z,4.92
2018-06-11T14:44:17.366Z,4.83
2018-06-11T14:46:46.619Z,4.53
2018-06-11T14:49:15.366Z,5.03
2018-06-11T14:51:44.617Z,5.28
2018-06-11T14:54:12.998Z,4.72
2018-06-11T14:56:41.875Z,4.72
2018-06-11T14:59:10.690Z,4.90
2018-06-11T15:01:39.456Z,6.65
2018-06-11T15:04:08.285Z,4.70
2018-06-11T15:06:36.999Z,4.77
2018-06-11T15:09:06.492Z,5.22
2018-06-11T15:11:35.246Z,4.90
2018-06-11T15:14:04.087Z,4.85
2018-06-11T15:16:32.511Z,4.95
2018-06-11T15:19:06.748Z,5.60
2018-06-11T15:21:35.524Z,4.97
2018-06-11T15:24:04.375Z,5.10
2018-06-11T15:26:33.034Z,5.65
2018-06-11T15:29:01.880Z,4.90
2018-06-11T15:31:30.605Z,5.55
2018-06-11T15:33:59.409Z,4.70
2018-06-11T15:36:28.375Z,4.97
2018-06-11T15:38:57.108Z,5.30
2018-06-11T15:41:26.299Z,6.78
2018-06-11T15:43:55.097Z,5.58
2018-06-11T15:46:23.799Z,5.87
2018-06-11T15:48:52.578Z,5.50
2018-06-11T15:51:21.320Z,5.08
2018-06-11T15:53:50.474Z,6.10
2018-06-11T15:56:19.238Z,5.20
2018-06-11T15:58:48.089Z,5.50
2018-06-11T16:01:16.460Z,5.40
2018-06-11T16:03:45.305Z,5.15
2018-06-11T16:06:14.003Z,4.80
2018-06-11T16:08:42.906Z,5.25
2018-06-11T16:11:11.588Z,5.08
2018-06-11T16:13:40.246Z,5.10
2018-06-11T16:16:08.771Z,5.55
2018-06-11T16:18:37.553Z,5.30
2018-06-11T16:21:06.310Z,5.37
2018-06-11T16:23:35.061Z,5.33
2018-06-11T16:26:03.749Z,5.03
2018-06-11T16:28:32.498Z,4.60
2018-06-11T16:31:01.196Z,5.10
2018-06-11T16:33:30.043Z,5.72
2018-06-11T16:35:58.767Z,5.30
2018-06-11T16:38:27.584Z,4.85
2018-06-11T16:40:56.031Z,5.00
2018-06-11T16:43:26.286Z,15.10
2018-06-11T16:45:55.082Z,9.30
2018-06-11T16:48:23.804Z,7.30
2018-06-11T16:50:52.320Z,6.50
2018-06-11T16:53:23.319Z,7.40
2018-06-11T16:55:52.319Z,5.55
2018-06-11T16:58:20.768Z,4.90
2018-06-11T17:00:49.543Z,5.12
2018-06-11T17:03:18.307Z,4.83
2018-06-11T17:05:47.056Z,5.42
2018-06-11T17:08:15.778Z,5.17
2018-06-11T17:10:44.683Z,5.12
2018-06-11T17:13:13.396Z,5.10
2018-06-11T17:15:42.617Z,5.67
2018-06-11T17:18:11.304Z,4.70
2018-06-11T17:20:40.091Z,5.50
2018-06-11T17:23:08.941Z,5.60
2018-06-11T17:25:44.675Z,6.00
2018-06-11T17:28:18.489Z,6.45
2018-06-11T17:30:47.242Z,6.60
2018-06-11T17:33:15.977Z,7.25
2018-06-11T17:35:44.976Z,7.17
2018-06-11T17:38:14.032Z,7.42
2018-06-11T17:40:42.771Z,6.80
2018-06-11T17:43:11.874Z,7.10
2018-06-11T17:45:40.173Z,6.63
2018-06-11T17:48:08.925Z,6.60
2018-06-11T17:50:38.782Z,6.10
2018-06-11T17:53:08.083Z,6.30
2018-06-11T17:55:37.098Z,6.83
2018-06-11T17:58:05.825Z,7.00
2018-06-11T18:00:34.772Z,7.15
2018-06-11T18:03:03.468Z,6.80
2018-06-11T18:05:32.404Z,6.67
2018-06-11T18:08:00.692Z,6.95
2018-06-11T18:10:29.068Z,7.72
2018-06-11T18:12:57.804Z,6.50
2018-06-11T18:15:26.596Z,6.85
2018-06-11T18:17:55.554Z,6.65
2018-06-11T18:20:24.412Z,6.58
2018-06-11T18:22:53.306Z,6.67
2018-06-11T18:25:22.182Z,6.58
2018-06-11T18:27:51.004Z,6.03
2018-06-11T18:30:19.666Z,6.60
2018-06-11T18:32:48.276Z,6.85
2018-06-11T18:35:17.118Z,6.80
2018-06-11T18:37:45.799Z,7.28
2018-06-11T18:40:14.607Z,6.80
2018-06-11T18:42:43.320Z,7.00
2018-06-11T18:45:12.069Z,7.75
2018-06-11T18:47:40.774Z,7.27
2018-06-11T18:50:09.580Z,7.58
2018-06-11T18:52:38.041Z,8.13
2018-06-11T18:55:06.827Z,8.23
2018-06-11T18:57:35.532Z,8.27
2018-06-11T19:00:04.837Z,8.28
2018-06-11T19:02:33.504Z,7.55
2018-06-11T19:05:02.170Z,7.62
2018-06-11T19:07:31.072Z,8.13
2018-06-11T19:10:00.732Z,9.70
2018-06-11T19:12:29.443Z,7.83
2018-06-11T19:14:58.216Z,7.62
2018-06-11T19:17:26.967Z,8.00
2018-06-11T19:19:55.587Z,8.08
2018-06-11T19:22:24.205Z,7.70
2018-06-11T19:24:53.087Z,8.33
2018-06-11T19:27:30.608Z,8.18
2018-06-11T19:30:06.918Z,7.93
2018-06-11T19:32:35.920Z,7.97
2018-06-11T19:35:04.887Z,7.85
2018-06-11T19:37:33.515Z,8.38
2018-06-11T19:40:02.271Z,8.53
2018-06-11T19:42:31.050Z,8.37
2018-06-11T19:44:59.918Z,7.60
2018-06-11T19:47:28.634Z,7.80
2018-06-11T19:49:57.407Z,8.03
2018-06-11T19:52:26.252Z,7.62
2018-06-11T19:54:55.166Z,8.00
2018-06-11T19:57:23.879Z,8.13
2018-06-11T19:59:52.921Z,7.87
2018-06-11T20:02:21.248Z,7.80
2018-06-11T20:04:49.989Z,8.25
2018-06-11T20:07:18.426Z,8.57
2018-06-11T20:09:47.246Z,7.85
2018-06-11T20:12:16.051Z,15.25
2018-06-11T20:14:44.764Z,11.80
2018-06-11T20:17:14.785Z,11.43
2018-06-11T20:19:43.688Z,12.10
2018-06-11T20:22:12.493Z,12.05
2018-06-11T20:24:41.307Z,11.43
2018-06-11T20:27:10.134Z,12.03
2018-06-11T20:29:39.080Z,12.73
2018-06-11T20:32:07.803Z,11.95
2018-06-11T20:34:36.498Z,12.80
2018-06-11T20:37:05.343Z,10.80
2018-06-11T20:39:34.395Z,11.53
2018-06-11T20:42:03.151Z,11.45
2018-06-11T20:44:31.879Z,10.03
2018-06-11T20:47:00.683Z,12.33
2018-06-11T20:49:29.410Z,10.70
2018-06-11T20:51:58.390Z,11.05
2018-06-11T20:54:27.241Z,10.90
2018-06-11T20:56:56.065Z,11.28
2018-06-11T20:59:24.935Z,11.35
2018-06-11T21:01:53.626Z,11.70
2018-06-11T21:04:22.326Z,11.73
2018-06-11T21:06:51.343Z,11.93
2018-06-11T21:09:20.320Z,10.93
2018-06-11T21:11:49.122Z,11.03
2018-06-11T21:14:17.860Z,9.95
2018-06-11T21:16:46.646Z,10.23
2018-06-11T21:19:15.412Z,9.20
2018-06-11T21:21:44.230Z,9.60
2018-06-11T21:24:12.907Z,8.60
2018-06-11T21:26:41.630Z,7.70
2018-06-11T21:29:10.382Z,8.68
2018-06-11T21:31:39.176Z,9.40
2018-06-11T21:34:07.609Z,9.08
2018-06-11T21:36:36.401Z,8.60
2018-06-11T21:39:07.894Z,7.03
2018-06-11T21:41:36.702Z,4.58
2018-06-11T21:44:05.523Z,3.65
2018-06-11T21:46:34.283Z,2.80
2018-06-11T21:49:03.124Z,3.40
2018-06-11T21:51:31.838Z,6.17
2018-06-11T21:54:00.636Z,3.10
2018-06-11T21:56:29.333Z,4.83
2018-06-11T21:58:58.257Z,6.00
2018-06-11T22:01:26.847Z,3.22
2018-06-11T22:03:56.001Z,3.37
2018-06-11T22:06:24.580Z,3.30
2018-06-11T22:08:53.142Z,3.22
2018-06-11T22:11:21.910Z,3.30
2018-06-11T22:13:50.537Z,3.33
2018-06-11T22:16:19.304Z,2.83
2018-06-11T22:18:47.681Z,3.00
2018-06-11T22:21:16.379Z,2.83
2018-06-11T22:23:44.754Z,2.92
2018-06-11T22:26:13.516Z,2.70
2018-06-11T22:28:42.244Z,2.72
2018-06-11T22:31:11.002Z,2.80
2018-06-11T22:33:39.739Z,2.92
2018-06-11T22:36:08.495Z,3.10
2018-06-11T22:38:37.109Z,2.92
2018-06-11T22:41:05.860Z,3.08
2018-06-11T22:43:34.851Z,2.80
2018-06-11T22:46:03.781Z,3.02
2018-06-11T22:48:32.428Z,2.72
2018-06-11T22:51:01.110Z,2.72
2018-06-11T22:53:29.929Z,3.40
2018-06-11T22:55:58.569Z,2.80
2018-06-11T22:58:27.278Z,3.45
2018-06-11T23:00:55.991Z,3.52
2018-06-11T23:03:24.879Z,3.08
2018-06-11T23:05:53.589Z,2.90
2018-06-11T23:08:22.350Z,2.77
2018-06-11T23:10:51.002Z,2.70
2018-06-11T23:13:19.689Z,3.02
2018-06-11T23:15:48.527Z,2.70
2018-06-11T23:18:16.906Z,2.60
2018-06-11T23:20:45.732Z,2.40
2018-06-11T23:23:14.502Z,2.87
2018-06-11T23:25:43.226Z,2.70
2018-06-11T23:28:11.994Z,2.80
2018-06-11T23:30:40.322Z,3.27
2018-06-11T23:33:13.564Z,3.00
2018-06-11T23:35:42.446Z,2.72
2018-06-11T23:38:10.816Z,2.90
2018-06-11T23:40:39.441Z,3.73
2018-06-11T23:43:07.954Z,3.15
2018-06-11T23:45:36.664Z,3.58
2018-06-11T23:48:05.416Z,2.98
2018-06-11T23:50:34.146Z,3.35
2018-06-11T23:53:02.550Z,3.60
2018-06-11T23:55:30.770Z,3.50
2018-06-11T23:57:59.509Z,3.80
